sensor_id;sensor_type;location;lat;lon;timestamp;temperature;humidity
65396;HTU21D;52004;45.136;39.010;2024-01-27T00:01:50;5.31;74.52
65396;HTU21D;52004;45.136;39.010;2024-01-27T00:04:16;5.28;74.57
65396;HTU21D;52004;45.136;39.010;2024-01-27T00:06:42;5.26;74.59
65396;HTU21D;52004;45.136;39.010;2024-01-27T00:09:08;5.25;74.62
65396;HTU21D;52004;45.136;39.010;2024-01-27T00:11:34;5.25;74.59
65396;HTU21D;52004;45.136;39.010;2024-01-27T00:14:00;5.23;74.60
65396;HTU21D;52004;45.136;39.010;2024-01-27T00:16:26;5.22;74.66
65396;HTU21D;52004;45.136;39.010;2024-01-27T00:18:52;5.24;74.69
65396;HTU21D;52004;45.136;39.010;2024-01-27T00:21:18;5.25;74.65
65396;HTU21D;52004;45.136;39.010;2024-01-27T00:23:44;5.25;74.62
65396;HTU21D;52004;45.136;39.010;2024-01-27T00:26:10;5.26;74.56
65396;HTU21D;52004;45.136;39.010;2024-01-27T00:28:36;5.27;74.55
65396;HTU21D;52004;45.136;39.010;2024-01-27T00:31:02;5.26;74.57
65396;HTU21D;52004;45.136;39.010;2024-01-27T00:33:28;5.27;74.57
65396;HTU21D;52004;45.136;39.010;2024-01-27T00:35:54;5.27;74.56
65396;HTU21D;52004;45.136;39.010;2024-01-27T00:38:20;5.30;74.54
65396;HTU21D;52004;45.136;39.010;2024-01-27T00:40:46;5.31;74.54
65396;HTU21D;52004;45.136;39.010;2024-01-27T00:43:12;5.28;74.54
65396;HTU21D;52004;45.136;39.010;2024-01-27T00:45:38;5.28;74.57
65396;HTU21D;52004;45.136;39.010;2024-01-27T00:48:04;5.26;74.54
65396;HTU21D;52004;45.136;39.010;2024-01-27T00:50:30;5.26;74.51
65396;HTU21D;52004;45.136;39.010;2024-01-27T00:52:56;5.28;74.51
65396;HTU21D;52004;45.136;39.010;2024-01-27T00:55:22;5.24;74.54
65396;HTU21D;52004;45.136;39.010;2024-01-27T00:57:48;5.23;74.54
65396;HTU21D;52004;45.136;39.010;2024-01-27T01:00:14;5.22;74.53
65396;HTU21D;52004;45.136;39.010;2024-01-27T01:02:40;5.20;74.60
65396;HTU21D;52004;45.136;39.010;2024-01-27T01:05:06;5.17;74.64
65396;HTU21D;52004;45.136;39.010;2024-01-27T01:07:33;5.17;74.65
65396;HTU21D;52004;45.136;39.010;2024-01-27T01:09:59;5.17;74.68
65396;HTU21D;52004;45.136;39.010;2024-01-27T01:12:25;5.15;74.70
65396;HTU21D;52004;45.136;39.010;2024-01-27T01:14:51;5.15;74.70
65396;HTU21D;52004;45.136;39.010;2024-01-27T01:17:17;5.17;74.64
65396;HTU21D;52004;45.136;39.010;2024-01-27T01:19:43;5.16;74.59
65396;HTU21D;52004;45.136;39.010;2024-01-27T01:22:09;5.12;74.64
65396;HTU21D;52004;45.136;39.010;2024-01-27T01:24:35;5.10;74.68
65396;HTU21D;52004;45.136;39.010;2024-01-27T01:27:01;5.10;74.70
65396;HTU21D;52004;45.136;39.010;2024-01-27T01:29:27;5.08;74.73
65396;HTU21D;52004;45.136;39.010;2024-01-27T01:31:53;5.08;74.76
65396;HTU21D;52004;45.136;39.010;2024-01-27T01:34:18;5.08;74.75
65396;HTU21D;52004;45.136;39.010;2024-01-27T01:36:44;5.10;74.73
65396;HTU21D;52004;45.136;39.010;2024-01-27T01:39:11;5.11;74.70
65396;HTU21D;52004;45.136;39.010;2024-01-27T01:41:38;5.12;74.67
65396;HTU21D;52004;45.136;39.010;2024-01-27T01:44:04;5.13;74.65
65396;HTU21D;52004;45.136;39.010;2024-01-27T01:46:30;5.12;74.67
65396;HTU21D;52004;45.136;39.010;2024-01-27T01:48:56;5.12;74.64
65396;HTU21D;52004;45.136;39.010;2024-01-27T01:51:22;5.10;74.66
65396;HTU21D;52004;45.136;39.010;2024-01-27T01:53:48;5.09;74.73
65396;HTU21D;52004;45.136;39.010;2024-01-27T01:56:17;5.07;74.76
65396;HTU21D;52004;45.136;39.010;2024-01-27T01:58:44;5.07;74.83
65396;HTU21D;52004;45.136;39.010;2024-01-27T02:01:10;5.08;74.84
65396;HTU21D;52004;45.136;39.010;2024-01-27T02:03:36;5.09;74.84
65396;HTU21D;52004;45.136;39.010;2024-01-27T02:06:02;5.11;74.83
65396;HTU21D;52004;45.136;39.010;2024-01-27T02:08:28;5.12;74.80
65396;HTU21D;52004;45.136;39.010;2024-01-27T02:10:53;5.13;74.80
65396;HTU21D;52004;45.136;39.010;2024-01-27T02:13:20;5.13;74.78
65396;HTU21D;52004;45.136;39.010;2024-01-27T02:15:47;5.16;74.76
65396;HTU21D;52004;45.136;39.010;2024-01-27T02:18:13;5.16;74.74
65396;HTU21D;52004;45.136;39.010;2024-01-27T02:20:39;5.15;74.78
65396;HTU21D;52004;45.136;39.010;2024-01-27T02:23:05;5.12;74.83
65396;HTU21D;52004;45.136;39.010;2024-01-27T02:25:31;5.11;74.84
65396;HTU21D;52004;45.136;39.010;2024-01-27T02:27:57;5.11;74.89
65396;HTU21D;52004;45.136;39.010;2024-01-27T02:30:23;5.11;74.93
65396;HTU21D;52004;45.136;39.010;2024-01-27T02:32:50;5.12;74.94
65396;HTU21D;52004;45.136;39.010;2024-01-27T02:35:16;5.12;74.98
65396;HTU21D;52004;45.136;39.010;2024-01-27T02:37:42;5.12;74.98
65396;HTU21D;52004;45.136;39.010;2024-01-27T02:40:08;5.12;74.97
65396;HTU21D;52004;45.136;39.010;2024-01-27T02:42:35;5.13;74.94
65396;HTU21D;52004;45.136;39.010;2024-01-27T02:45:01;5.15;74.92
65396;HTU21D;52004;45.136;39.010;2024-01-27T02:47:27;5.16;74.92
65396;HTU21D;52004;45.136;39.010;2024-01-27T02:49:53;5.19;74.90
65396;HTU21D;52004;45.136;39.010;2024-01-27T02:52:19;5.20;74.89
65396;HTU21D;52004;45.136;39.010;2024-01-27T02:54:45;5.20;74.86
65396;HTU21D;52004;45.136;39.010;2024-01-27T02:57:11;5.19;74.85
65396;HTU21D;52004;45.136;39.010;2024-01-27T02:59:38;5.18;74.87
65396;HTU21D;52004;45.136;39.010;2024-01-27T03:02:07;5.17;74.91
65396;HTU21D;52004;45.136;39.010;2024-01-27T03:04:33;5.16;74.96
65396;HTU21D;52004;45.136;39.010;2024-01-27T03:06:59;5.17;74.98
65396;HTU21D;52004;45.136;39.010;2024-01-27T03:09:25;5.17;74.93
65396;HTU21D;52004;45.136;39.010;2024-01-27T03:11:51;5.15;74.92
65396;HTU21D;52004;45.136;39.010;2024-01-27T03:14:17;5.11;74.94
65396;HTU21D;52004;45.136;39.010;2024-01-27T03:16:43;5.11;74.96
65396;HTU21D;52004;45.136;39.010;2024-01-27T03:19:10;5.11;74.99
65396;HTU21D;52004;45.136;39.010;2024-01-27T03:21:36;5.10;75.01
65396;HTU21D;52004;45.136;39.010;2024-01-27T03:24:01;5.09;75.02
65396;HTU21D;52004;45.136;39.010;2024-01-27T03:26:27;5.08;75.04
65396;HTU21D;52004;45.136;39.010;2024-01-27T03:28:53;5.07;75.07
65396;HTU21D;52004;45.136;39.010;2024-01-27T03:31:19;5.07;75.11
65396;HTU21D;52004;45.136;39.010;2024-01-27T03:33:45;5.07;75.12
65396;HTU21D;52004;45.136;39.010;2024-01-27T03:36:12;5.06;75.15
65396;HTU21D;52004;45.136;39.010;2024-01-27T03:38:38;5.06;75.16
65396;HTU21D;52004;45.136;39.010;2024-01-27T03:41:04;5.06;75.19
65396;HTU21D;52004;45.136;39.010;2024-01-27T03:43:30;5.07;75.19
65396;HTU21D;52004;45.136;39.010;2024-01-27T03:45:57;5.07;75.19
65396;HTU21D;52004;45.136;39.010;2024-01-27T03:48:23;5.07;75.20
65396;HTU21D;52004;45.136;39.010;2024-01-27T03:50:48;5.08;75.20
65396;HTU21D;52004;45.136;39.010;2024-01-27T03:53:14;5.07;75.14
65396;HTU21D;52004;45.136;39.010;2024-01-27T03:55:40;5.07;75.13
65396;HTU21D;52004;45.136;39.010;2024-01-27T03:58:06;5.06;75.12
65396;HTU21D;52004;45.136;39.010;2024-01-27T04:00:32;5.04;75.15
65396;HTU21D;52004;45.136;39.010;2024-01-27T04:02:59;5.04;75.18
65396;HTU21D;52004;45.136;39.010;2024-01-27T04:05:25;5.03;75.21
65396;HTU21D;52004;45.136;39.010;2024-01-27T04:07:51;5.03;75.21
65396;HTU21D;52004;45.136;39.010;2024-01-27T04:10:17;5.06;75.18
65396;HTU21D;52004;45.136;39.010;2024-01-27T04:12:43;5.07;75.12
65396;HTU21D;52004;45.136;39.010;2024-01-27T04:15:10;5.08;75.08
65396;HTU21D;52004;45.136;39.010;2024-01-27T04:17:39;5.08;75.05
65396;HTU21D;52004;45.136;39.010;2024-01-27T04:20:05;5.09;75.04
65396;HTU21D;52004;45.136;39.010;2024-01-27T04:22:33;5.07;75.02
65396;HTU21D;52004;45.136;39.010;2024-01-27T04:24:59;5.08;75.01
65396;HTU21D;52004;45.136;39.010;2024-01-27T04:27:26;5.07;74.96
65396;HTU21D;52004;45.136;39.010;2024-01-27T04:29:52;5.06;74.99
65396;HTU21D;52004;45.136;39.010;2024-01-27T04:32:18;5.05;75.01
65396;HTU21D;52004;45.136;39.010;2024-01-27T04:34:44;5.04;75.02
65396;HTU21D;52004;45.136;39.010;2024-01-27T04:37:10;5.03;74.99
65396;HTU21D;52004;45.136;39.010;2024-01-27T04:39:37;5.02;75.00
65396;HTU21D;52004;45.136;39.010;2024-01-27T04:42:03;5.02;75.02
65396;HTU21D;52004;45.136;39.010;2024-01-27T04:44:32;5.01;75.04
65396;HTU21D;52004;45.136;39.010;2024-01-27T04:46:58;4.98;75.05
65396;HTU21D;52004;45.136;39.010;2024-01-27T04:49:24;4.97;75.06
65396;HTU21D;52004;45.136;39.010;2024-01-27T04:51:50;4.97;75.07
65396;HTU21D;52004;45.136;39.010;2024-01-27T04:54:15;4.96;75.08
65396;HTU21D;52004;45.136;39.010;2024-01-27T04:56:41;4.97;75.09
65396;HTU21D;52004;45.136;39.010;2024-01-27T04:59:07;5.00;75.09
65396;HTU21D;52004;45.136;39.010;2024-01-27T05:01:33;5.02;75.09
65396;HTU21D;52004;45.136;39.010;2024-01-27T05:03:59;5.03;75.06
65396;HTU21D;52004;45.136;39.010;2024-01-27T05:06:25;5.05;75.08
65396;HTU21D;52004;45.136;39.010;2024-01-27T05:08:51;5.05;75.07
65396;HTU21D;52004;45.136;39.010;2024-01-27T05:11:29;5.07;75.06
65396;HTU21D;52004;45.136;39.010;2024-01-27T05:13:55;5.06;75.01
65396;HTU21D;52004;45.136;39.010;2024-01-27T05:16:21;5.05;74.92
65396;HTU21D;52004;45.136;39.010;2024-01-27T05:18:47;5.00;74.96
65396;HTU21D;52004;45.136;39.010;2024-01-27T05:21:14;4.96;75.02
65396;HTU21D;52004;45.136;39.010;2024-01-27T05:23:40;4.95;75.04
65396;HTU21D;52004;45.136;39.010;2024-01-27T05:26:06;4.93;75.03
65396;HTU21D;52004;45.136;39.010;2024-01-27T05:28:31;4.91;75.03
65396;HTU21D;52004;45.136;39.010;2024-01-27T05:30:57;4.89;75.06
65396;HTU21D;52004;45.136;39.010;2024-01-27T05:33:23;4.89;75.09
65396;HTU21D;52004;45.136;39.010;2024-01-27T05:35:49;0.00;75.10
65396;HTU21D;52004;45.136;39.010;2024-01-27T05:38:15;4.87;75.20
65396;HTU21D;52004;45.136;39.010;2024-01-27T05:40:42;4.88;75.26
65396;HTU21D;52004;45.136;39.010;2024-01-27T05:43:07;4.90;75.28
65396;HTU21D;52004;45.136;39.010;2024-01-27T05:45:33;4.92;75.30
65396;HTU21D;52004;45.136;39.010;2024-01-27T05:47:59;5.00;75.61
65396;HTU21D;52004;45.136;39.010;2024-01-27T05:50:26;5.18;76.10
65396;HTU21D;52004;45.136;39.010;2024-01-27T05:52:51;5.46;76.14
65396;HTU21D;52004;45.136;39.010;2024-01-27T05:55:18;5.77;76.06
65396;HTU21D;52004;45.136;39.010;2024-01-27T05:57:44;6.17;76.73
65396;HTU21D;52004;45.136;39.010;2024-01-27T06:00:10;6.55;76.72
65396;HTU21D;52004;45.136;39.010;2024-01-27T06:02:36;6.72;76.05
65396;HTU21D;52004;45.136;39.010;2024-01-27T06:05:02;6.81;75.76
65396;HTU21D;52004;45.136;39.010;2024-01-27T06:07:28;6.85;75.48
65396;HTU21D;52004;45.136;39.010;2024-01-27T06:09:54;6.89;75.60
65396;HTU21D;52004;45.136;39.010;2024-01-27T06:12:20;7.04;75.89
65396;HTU21D;52004;45.136;39.010;2024-01-27T06:14:46;7.25;76.22
65396;HTU21D;52004;45.136;39.010;2024-01-27T06:17:12;7.47;76.58
65396;HTU21D;52004;45.136;39.010;2024-01-27T06:19:40;7.79;77.11
65396;HTU21D;52004;45.136;39.010;2024-01-27T06:22:06;8.19;77.99
65396;HTU21D;52004;45.136;39.010;2024-01-27T06:24:32;8.61;78.15
65396;HTU21D;52004;45.136;39.010;2024-01-27T06:26:58;9.03;78.51
65396;HTU21D;52004;45.136;39.010;2024-01-27T06:29:24;9.41;78.13
65396;HTU21D;52004;45.136;39.010;2024-01-27T06:31:51;9.65;77.35
65396;HTU21D;52004;45.136;39.010;2024-01-27T06:34:17;9.72;76.87
65396;HTU21D;52004;45.136;39.010;2024-01-27T06:36:44;9.91;77.47
65396;HTU21D;52004;45.136;39.010;2024-01-27T06:39:09;10.14;77.64
65396;HTU21D;52004;45.136;39.010;2024-01-27T06:41:37;10.37;77.61
65396;HTU21D;52004;45.136;39.010;2024-01-27T06:44:03;10.46;77.31
65396;HTU21D;52004;45.136;39.010;2024-01-27T06:46:29;10.50;77.02
65396;HTU21D;52004;45.136;39.010;2024-01-27T06:48:55;10.62;77.23
65396;HTU21D;52004;45.136;39.010;2024-01-27T06:51:21;10.68;76.71
65396;HTU21D;52004;45.136;39.010;2024-01-27T06:53:47;10.50;75.81
65396;HTU21D;52004;45.136;39.010;2024-01-27T06:56:14;10.37;76.05
65396;HTU21D;52004;45.136;39.010;2024-01-27T06:58:40;10.56;77.25
65396;HTU21D;52004;45.136;39.010;2024-01-27T07:01:09;10.90;77.78
65396;HTU21D;52004;45.136;39.010;2024-01-27T07:03:35;11.12;77.20
65396;HTU21D;52004;45.136;39.010;2024-01-27T07:06:01;11.25;77.09
65396;HTU21D;52004;45.136;39.010;2024-01-27T07:08:27;11.39;77.18
65396;HTU21D;52004;45.136;39.010;2024-01-27T07:10:52;11.57;77.38
65396;HTU21D;52004;45.136;39.010;2024-01-27T07:13:18;11.71;77.33
65396;HTU21D;52004;45.136;39.010;2024-01-27T07:15:44;11.91;78.01
65396;HTU21D;52004;45.136;39.010;2024-01-27T07:18:10;12.25;78.58
65396;HTU21D;52004;45.136;39.010;2024-01-27T07:20:37;12.60;78.96
65396;HTU21D;52004;45.136;39.010;2024-01-27T07:23:03;12.96;79.19
65396;HTU21D;52004;45.136;39.010;2024-01-27T07:25:29;13.39;79.66
65396;HTU21D;52004;45.136;39.010;2024-01-27T07:27:55;13.81;79.67
65396;HTU21D;52004;45.136;39.010;2024-01-27T07:30:21;14.20;79.67
65396;HTU21D;52004;45.136;39.010;2024-01-27T07:32:47;14.48;79.08
65396;HTU21D;52004;45.136;39.010;2024-01-27T07:35:13;14.49;77.97
65396;HTU21D;52004;45.136;39.010;2024-01-27T07:37:38;14.23;76.47
65396;HTU21D;52004;45.136;39.010;2024-01-27T07:40:05;13.73;73.12
65396;HTU21D;52004;45.136;39.010;2024-01-27T07:42:31;13.02;71.92
65396;HTU21D;52004;45.136;39.010;2024-01-27T07:44:57;12.32;71.84
65396;HTU21D;52004;45.136;39.010;2024-01-27T07:47:23;11.68;72.05
65396;HTU21D;52004;45.136;39.010;2024-01-27T07:49:49;11.13;72.41
65396;HTU21D;52004;45.136;39.010;2024-01-27T07:52:15;10.66;72.66
65396;HTU21D;52004;45.136;39.010;2024-01-27T07:54:41;10.24;72.87
65396;HTU21D;52004;45.136;39.010;2024-01-27T07:57:07;9.91;73.09
65396;HTU21D;52004;45.136;39.010;2024-01-27T07:59:33;9.64;73.30
65396;HTU21D;52004;45.136;39.010;2024-01-27T08:01:59;9.41;73.30
65396;HTU21D;52004;45.136;39.010;2024-01-27T08:04:25;9.18;73.28
65396;HTU21D;52004;45.136;39.010;2024-01-27T08:06:52;9.00;73.26
65396;HTU21D;52004;45.136;39.010;2024-01-27T08:09:18;8.82;73.40
65396;HTU21D;52004;45.136;39.010;2024-01-27T08:11:45;8.70;73.38
65396;HTU21D;52004;45.136;39.010;2024-01-27T08:14:11;8.55;73.36
65396;HTU21D;52004;45.136;39.010;2024-01-27T08:16:37;8.43;73.40
65396;HTU21D;52004;45.136;39.010;2024-01-27T08:19:03;8.34;73.48
65396;HTU21D;52004;45.136;39.010;2024-01-27T08:21:29;8.29;73.49
65396;HTU21D;52004;45.136;39.010;2024-01-27T08:23:56;8.22;73.49
65396;HTU21D;52004;45.136;39.010;2024-01-27T08:26:22;8.20;73.48
65396;HTU21D;52004;45.136;39.010;2024-01-27T08:28:47;8.18;73.57
65396;HTU21D;52004;45.136;39.010;2024-01-27T08:31:13;8.20;73.68
65396;HTU21D;52004;45.136;39.010;2024-01-27T08:33:39;8.24;73.54
65396;HTU21D;52004;45.136;39.010;2024-01-27T08:36:05;8.24;73.43
65396;HTU21D;52004;45.136;39.010;2024-01-27T08:38:31;8.26;73.40
65396;HTU21D;52004;45.136;39.010;2024-01-27T08:40:57;8.24;73.41
65396;HTU21D;52004;45.136;39.010;2024-01-27T08:43:23;8.26;73.50
65396;HTU21D;52004;45.136;39.010;2024-01-27T08:45:49;8.27;73.28
65396;HTU21D;52004;45.136;39.010;2024-01-27T08:48:15;8.21;73.19
65396;HTU21D;52004;45.136;39.010;2024-01-27T08:50:41;8.19;73.25
65396;HTU21D;52004;45.136;39.010;2024-01-27T08:53:07;8.20;73.32
65396;HTU21D;52004;45.136;39.010;2024-01-27T08:55:33;8.23;73.34
65396;HTU21D;52004;45.136;39.010;2024-01-27T08:57:59;8.28;73.31
65396;HTU21D;52004;45.136;39.010;2024-01-27T09:00:25;8.28;73.13
65396;HTU21D;52004;45.136;39.010;2024-01-27T09:02:51;8.28;73.09
65396;HTU21D;52004;45.136;39.010;2024-01-27T09:05:18;8.26;73.13
65396;HTU21D;52004;45.136;39.010;2024-01-27T09:07:43;8.26;73.12
65396;HTU21D;52004;45.136;39.010;2024-01-27T09:10:10;8.23;73.08
65396;HTU21D;52004;45.136;39.010;2024-01-27T09:12:39;8.22;72.97
65396;HTU21D;52004;45.136;39.010;2024-01-27T09:15:06;8.19;72.96
65396;HTU21D;52004;45.136;39.010;2024-01-27T09:17:32;8.14;73.00
65396;HTU21D;52004;45.136;39.010;2024-01-27T09:19:59;8.12;73.07
65396;HTU21D;52004;45.136;39.010;2024-01-27T09:22:25;8.12;73.12
65396;HTU21D;52004;45.136;39.010;2024-01-27T09:24:51;8.11;73.10
65396;HTU21D;52004;45.136;39.010;2024-01-27T09:27:17;8.08;73.10
65396;HTU21D;52004;45.136;39.010;2024-01-27T09:29:42;8.06;73.08
65396;HTU21D;52004;45.136;39.010;2024-01-27T09:32:08;8.07;73.09
65396;HTU21D;52004;45.136;39.010;2024-01-27T09:34:34;8.07;73.03
65396;HTU21D;52004;45.136;39.010;2024-01-27T09:37:00;8.03;72.95
65396;HTU21D;52004;45.136;39.010;2024-01-27T09:39:27;7.99;72.96
65396;HTU21D;52004;45.136;39.010;2024-01-27T09:41:53;7.97;73.02
65396;HTU21D;52004;45.136;39.010;2024-01-27T09:44:19;7.97;73.06
65396;HTU21D;52004;45.136;39.010;2024-01-27T09:46:46;7.96;73.03
65396;HTU21D;52004;45.136;39.010;2024-01-27T09:49:13;7.97;72.99
65396;HTU21D;52004;45.136;39.010;2024-01-27T09:51:41;7.94;73.00
65396;HTU21D;52004;45.136;39.010;2024-01-27T09:54:07;7.92;72.99
65396;HTU21D;52004;45.136;39.010;2024-01-27T09:56:33;7.92;73.04
65396;HTU21D;52004;45.136;39.010;2024-01-27T09:59:02;7.93;73.08
65396;HTU21D;52004;45.136;39.010;2024-01-27T10:01:30;7.93;73.09
65396;HTU21D;52004;45.136;39.010;2024-01-27T10:03:57;7.96;73.15
65396;HTU21D;52004;45.136;39.010;2024-01-27T10:06:24;7.99;73.19
65396;HTU21D;52004;45.136;39.010;2024-01-27T10:08:53;8.03;73.15
65396;HTU21D;52004;45.136;39.010;2024-01-27T10:11:20;8.06;73.06
65396;HTU21D;52004;45.136;39.010;2024-01-27T10:13:57;8.06;72.92
65396;HTU21D;52004;45.136;39.010;2024-01-27T10:16:25;8.05;72.84
65396;HTU21D;52004;45.136;39.010;2024-01-27T10:19:01;8.04;72.89
65396;HTU21D;52004;45.136;39.010;2024-01-27T10:21:27;8.04;72.97
65396;HTU21D;52004;45.136;39.010;2024-01-27T10:23:53;8.07;73.01
65396;HTU21D;52004;45.136;39.010;2024-01-27T10:26:19;8.12;73.11
65396;HTU21D;52004;45.136;39.010;2024-01-27T10:28:57;8.18;73.12
65396;HTU21D;52004;45.136;39.010;2024-01-27T10:31:26;8.22;73.09
65396;HTU21D;52004;45.136;39.010;2024-01-27T10:33:52;8.28;73.09
65396;HTU21D;52004;45.136;39.010;2024-01-27T10:36:22;8.30;72.99
65396;HTU21D;52004;45.136;39.010;2024-01-27T10:38:48;8.33;73.06
65396;HTU21D;52004;45.136;39.010;2024-01-27T10:41:18;8.36;73.02
65396;HTU21D;52004;45.136;39.010;2024-01-27T10:43:46;8.38;72.99
65396;HTU21D;52004;45.136;39.010;2024-01-27T10:46:15;8.36;72.91
65396;HTU21D;52004;45.136;39.010;2024-01-27T10:48:41;8.35;72.97
65396;HTU21D;52004;45.136;39.010;2024-01-27T10:51:08;8.35;72.92
65396;HTU21D;52004;45.136;39.010;2024-01-27T10:53:35;8.32;72.82
65396;HTU21D;52004;45.136;39.010;2024-01-27T10:56:05;8.30;72.81
65396;HTU21D;52004;45.136;39.010;2024-01-27T10:58:59;8.28;72.83
65396;HTU21D;52004;45.136;39.010;2024-01-27T11:01:25;8.27;72.85
65396;HTU21D;52004;45.136;39.010;2024-01-27T11:03:52;8.27;72.84
65396;HTU21D;52004;45.136;39.010;2024-01-27T11:06:18;8.26;72.87
65396;HTU21D;52004;45.136;39.010;2024-01-27T11:08:46;8.24;72.83
65396;HTU21D;52004;45.136;39.010;2024-01-27T11:11:12;8.22;72.89
65396;HTU21D;52004;45.136;39.010;2024-01-27T11:13:38;8.23;72.90
65396;HTU21D;52004;45.136;39.010;2024-01-27T11:16:05;8.24;72.93
65396;HTU21D;52004;45.136;39.010;2024-01-27T11:18:31;8.27;72.98
65396;HTU21D;52004;45.136;39.010;2024-01-27T11:20:58;8.27;72.94
65396;HTU21D;52004;45.136;39.010;2024-01-27T11:23:33;8.27;72.86
65396;HTU21D;52004;45.136;39.010;2024-01-27T11:26:02;8.26;72.83
65396;HTU21D;52004;45.136;39.010;2024-01-27T11:28:28;8.22;72.94
65396;HTU21D;52004;45.136;39.010;2024-01-27T11:30:54;8.23;73.02
65396;HTU21D;52004;45.136;39.010;2024-01-27T11:33:24;8.24;73.06
65396;HTU21D;52004;45.136;39.010;2024-01-27T11:36:00;8.27;73.05
65396;HTU21D;52004;45.136;39.010;2024-01-27T11:38:25;8.28;72.99
65396;HTU21D;52004;45.136;39.010;2024-01-27T11:40:52;8.28;72.90
65396;HTU21D;52004;45.136;39.010;2024-01-27T11:43:18;8.27;72.76
65396;HTU21D;52004;45.136;39.010;2024-01-27T11:46:08;8.21;72.71
65396;HTU21D;52004;45.136;39.010;2024-01-27T11:48:41;8.16;72.72
65396;HTU21D;52004;45.136;39.010;2024-01-27T11:51:08;8.08;72.67
65396;HTU21D;52004;45.136;39.010;2024-01-27T11:53:36;8.03;72.72
65396;HTU21D;52004;45.136;39.010;2024-01-27T11:56:03;7.98;72.79
65396;HTU21D;52004;45.136;39.010;2024-01-27T11:58:29;7.96;72.77
65396;HTU21D;52004;45.136;39.010;2024-01-27T12:00:56;7.92;72.80
65396;HTU21D;52004;45.136;39.010;2024-01-27T12:03:22;7.88;72.83
65396;HTU21D;52004;45.136;39.010;2024-01-27T12:05:48;7.85;72.77
65396;HTU21D;52004;45.136;39.010;2024-01-27T12:08:15;7.82;72.83
65396;HTU21D;52004;45.136;39.010;2024-01-27T12:10:41;7.78;72.86
65396;HTU21D;52004;45.136;39.010;2024-01-27T12:13:16;7.78;72.87
65396;HTU21D;52004;45.136;39.010;2024-01-27T12:16:08;7.75;72.83
65396;HTU21D;52004;45.136;39.010;2024-01-27T12:18:35;7.72;72.85
65396;HTU21D;52004;45.136;39.010;2024-01-27T12:21:01;7.70;72.87
65396;HTU21D;52004;45.136;39.010;2024-01-27T12:23:27;7.68;72.90
65396;HTU21D;52004;45.136;39.010;2024-01-27T12:25:53;7.69;72.93
65396;HTU21D;52004;45.136;39.010;2024-01-27T12:28:20;7.67;72.96
65396;HTU21D;52004;45.136;39.010;2024-01-27T12:30:47;7.67;72.97
65396;HTU21D;52004;45.136;39.010;2024-01-27T12:33:14;7.65;72.93
65396;HTU21D;52004;45.136;39.010;2024-01-27T12:35:40;7.64;72.96
65396;HTU21D;52004;45.136;39.010;2024-01-27T12:38:06;7.64;72.99
65396;HTU21D;52004;45.136;39.010;2024-01-27T12:40:32;7.65;72.96
65396;HTU21D;52004;45.136;39.010;2024-01-27T12:42:58;7.64;72.91
65396;HTU21D;52004;45.136;39.010;2024-01-27T12:45:24;7.63;72.90
65396;HTU21D;52004;45.136;39.010;2024-01-27T12:47:49;7.62;72.90
65396;HTU21D;52004;45.136;39.010;2024-01-27T12:50:15;7.61;72.90
65396;HTU21D;52004;45.136;39.010;2024-01-27T12:52:43;7.61;72.92
65396;HTU21D;52004;45.136;39.010;2024-01-27T12:55:09;7.62;72.91
65396;HTU21D;52004;45.136;39.010;2024-01-27T12:57:35;7.61;72.89
65396;HTU21D;52004;45.136;39.010;2024-01-27T13:00:01;7.60;72.93
65396;HTU21D;52004;45.136;39.010;2024-01-27T13:02:29;7.60;72.95
65396;HTU21D;52004;45.136;39.010;2024-01-27T13:04:55;7.60;72.94
65396;HTU21D;52004;45.136;39.010;2024-01-27T13:07:21;7.60;72.93
65396;HTU21D;52004;45.136;39.010;2024-01-27T13:09:47;7.59;72.93
65396;HTU21D;52004;45.136;39.010;2024-01-27T13:12:13;7.60;72.90
65396;HTU21D;52004;45.136;39.010;2024-01-27T13:14:39;7.58;72.90
65396;HTU21D;52004;45.136;39.010;2024-01-27T13:17:05;7.55;72.90
65396;HTU21D;52004;45.136;39.010;2024-01-27T13:19:31;7.55;72.90
65396;HTU21D;52004;45.136;39.010;2024-01-27T13:21:57;7.53;72.89
65396;HTU21D;52004;45.136;39.010;2024-01-27T13:24:22;7.53;72.90
65396;HTU21D;52004;45.136;39.010;2024-01-27T13:26:50;7.50;72.93
65396;HTU21D;52004;45.136;39.010;2024-01-27T13:29:17;7.48;72.93
65396;HTU21D;52004;45.136;39.010;2024-01-27T13:31:43;7.47;72.93
65396;HTU21D;52004;45.136;39.010;2024-01-27T13:34:09;7.46;72.93
65396;HTU21D;52004;45.136;39.010;2024-01-27T13:36:35;7.44;72.96
65396;HTU21D;52004;45.136;39.010;2024-01-27T13:39:01;7.43;72.99
65396;HTU21D;52004;45.136;39.010;2024-01-27T13:44:18;7.41;73.03
65396;HTU21D;52004;45.136;39.010;2024-01-27T13:46:44;7.41;73.03
65396;HTU21D;52004;45.136;39.010;2024-01-27T13:49:09;7.40;72.97
65396;HTU21D;52004;45.136;39.010;2024-01-27T13:51:35;7.38;72.96
65396;HTU21D;52004;45.136;39.010;2024-01-27T13:54:01;7.37;72.96
65396;HTU21D;52004;45.136;39.010;2024-01-27T13:56:28;7.34;73.01
65396;HTU21D;52004;45.136;39.010;2024-01-27T13:58:58;7.34;73.01
65396;HTU21D;52004;45.136;39.010;2024-01-27T14:01:23;7.32;73.03
65396;HTU21D;52004;45.136;39.010;2024-01-27T14:03:49;7.33;73.00
65396;HTU21D;52004;45.136;39.010;2024-01-27T14:06:15;7.31;72.99
65396;HTU21D;52004;45.136;39.010;2024-01-27T14:08:41;7.30;72.99
65396;HTU21D;52004;45.136;39.010;2024-01-27T14:11:07;7.29;73.06
65396;HTU21D;52004;45.136;39.010;2024-01-27T14:13:33;7.28;73.03
65396;HTU21D;52004;45.136;39.010;2024-01-27T14:15:59;7.26;73.04
65396;HTU21D;52004;45.136;39.010;2024-01-27T14:18:25;7.27;73.04
65396;HTU21D;52004;45.136;39.010;2024-01-27T14:20:51;7.26;73.05
65396;HTU21D;52004;45.136;39.010;2024-01-27T14:23:17;7.26;73.06
65396;HTU21D;52004;45.136;39.010;2024-01-27T14:25:43;7.27;73.06
65396;HTU21D;52004;45.136;39.010;2024-01-27T14:28:09;7.24;73.06
65396;HTU21D;52004;45.136;39.010;2024-01-27T14:30:36;7.25;73.06
65396;HTU21D;52004;45.136;39.010;2024-01-27T14:33:02;7.24;73.06
65396;HTU21D;52004;45.136;39.010;2024-01-27T14:35:28;7.22;73.06
65396;HTU21D;52004;45.136;39.010;2024-01-27T14:37:54;7.18;73.08
65396;HTU21D;52004;45.136;39.010;2024-01-27T14:40:22;7.18;73.08
65396;HTU21D;52004;45.136;39.010;2024-01-27T14:42:48;7.17;73.09
65396;HTU21D;52004;45.136;39.010;2024-01-27T14:45:15;7.16;73.10
65396;HTU21D;52004;45.136;39.010;2024-01-27T14:47:41;7.14;73.12
65396;HTU21D;52004;45.136;39.010;2024-01-27T14:50:07;7.12;73.15
65396;HTU21D;52004;45.136;39.010;2024-01-27T14:52:33;7.11;73.19
65396;HTU21D;52004;45.136;39.010;2024-01-27T14:54:59;7.12;73.19
65396;HTU21D;52004;45.136;39.010;2024-01-27T14:57:26;7.09;73.17
65396;HTU21D;52004;45.136;39.010;2024-01-27T14:59:52;7.07;73.20
65396;HTU21D;52004;45.136;39.010;2024-01-27T15:02:17;7.05;73.23
65396;HTU21D;52004;45.136;39.010;2024-01-27T15:04:43;7.04;73.22
65396;HTU21D;52004;45.136;39.010;2024-01-27T15:07:09;7.02;73.22
65396;HTU21D;52004;45.136;39.010;2024-01-27T15:09:41;7.00;73.22
65396;HTU21D;52004;45.136;39.010;2024-01-27T15:12:07;6.97;73.23
65396;HTU21D;52004;45.136;39.010;2024-01-27T15:14:33;6.97;73.28